createdAt,value
2018-03-14T00:00:10.327Z,28.10
2018-03-14T00:01:10.349Z,26.60
2018-03-14T00:02:10.359Z,28.30
2018-03-14T00:03:10.367Z,27.10
2018-03-14T00:04:10.387Z,23.30
2018-03-14T00:05:10.397Z,26.90
2018-03-14T00:06:10.406Z,25.00
2018-03-14T00:07:10.428Z,27.00
2018-03-14T00:08:10.441Z,29.40
2018-03-14T00:09:10.461Z,28.10
2018-03-14T00:10:10.466Z,29.10
2018-03-14T00:11:10.474Z,28.30
2018-03-14T00:12:10.497Z,28.50
2018-03-14T00:13:10.507Z,28.20
2018-03-14T00:14:10.513Z,27.70
2018-03-14T00:15:10.537Z,32.10
2018-03-14T00:16:10.547Z,29.40
2018-03-14T00:17:10.556Z,29.50
2018-03-14T00:18:10.619Z,28.10
2018-03-14T00:19:10.585Z,30.10
2018-03-14T00:20:10.597Z,29.30
2018-03-14T00:21:10.620Z,31.30
2018-03-14T00:22:10.628Z,27.70
2018-03-14T00:23:10.637Z,30.90
2018-03-14T00:24:10.653Z,29.90
2018-03-14T00:25:10.663Z,32.90
2018-03-14T00:26:10.683Z,31.00
2018-03-14T00:27:10.692Z,28.00
2018-03-14T00:28:10.701Z,32.40
2018-03-14T00:29:10.726Z,29.80
2018-03-14T00:30:10.732Z,31.30
2018-03-14T00:31:10.739Z,30.10
2018-03-14T00:32:10.765Z,28.10
2018-03-14T00:33:10.774Z,33.20
2018-03-14T00:34:10.779Z,30.20
2018-03-14T00:35:10.801Z,33.10
2018-03-14T00:36:10.811Z,29.80
2018-03-14T00:37:10.819Z,31.80
2018-03-14T00:38:10.843Z,36.10
2018-03-14T00:39:10.849Z,31.40
2018-03-14T00:40:10.858Z,27.10
2018-03-14T00:41:10.879Z,28.30
2018-03-14T00:42:10.887Z,36.90
2018-03-14T00:43:10.913Z,30.90
2018-03-14T00:44:10.921Z,35.10
2018-03-14T00:45:10.926Z,32.40
2018-03-14T00:46:10.948Z,32.00
2018-03-14T00:47:10.961Z,30.40
2018-03-14T00:48:10.970Z,30.90
2018-03-14T00:49:10.992Z,29.40
2018-03-14T00:50:11.009Z,31.60
2018-03-14T00:51:11.020Z,29.20
2018-03-14T00:52:11.030Z,31.00
2018-03-14T00:53:11.052Z,29.50
2018-03-14T00:54:11.070Z,29.20
2018-03-14T00:55:11.070Z,30.40
2018-03-14T00:56:11.079Z,31.40
2018-03-14T00:57:11.102Z,31.90
2018-03-14T00:58:11.108Z,29.20
2018-03-14T00:59:11.119Z,30.80
2018-03-14T01:00:11.138Z,26.70
2018-03-14T01:01:11.144Z,29.60
2018-03-14T01:02:11.167Z,28.10
2018-03-14T01:03:11.174Z,32.40
2018-03-14T01:04:11.185Z,30.00
2018-03-14T01:05:11.204Z,30.30
2018-03-14T01:06:11.216Z,30.80
2018-03-14T01:07:11.227Z,29.10
2018-03-14T01:08:11.243Z,30.00
2018-03-14T01:09:11.253Z,28.30
2018-03-14T01:10:11.262Z,28.50
2018-03-14T01:11:11.284Z,29.90
2018-03-14T01:12:11.296Z,29.60
2018-03-14T01:13:11.374Z,28.30
2018-03-14T01:14:11.450Z,26.80
2018-03-14T01:15:11.337Z,28.20
2018-03-14T01:16:11.391Z,29.00
2018-03-14T01:17:11.454Z,37.60
2018-03-14T01:18:11.379Z,28.20
2018-03-14T01:19:11.408Z,28.90
2018-03-14T01:20:11.652Z,27.30
2018-03-14T01:21:11.409Z,28.70
2018-03-14T01:22:11.453Z,28.50
2018-03-14T01:23:11.496Z,27.10
2018-03-14T01:24:11.452Z,27.40
2018-03-14T01:25:11.482Z,28.80
2018-03-14T01:26:11.517Z,27.40
2018-03-14T01:27:11.509Z,26.80
2018-03-14T01:28:11.520Z,26.70
2018-03-14T01:29:11.518Z,28.00
2018-03-14T01:30:11.543Z,28.50
2018-03-14T01:31:11.547Z,24.50
2018-03-14T01:32:11.557Z,24.20
2018-03-14T01:33:11.583Z,27.50
2018-03-14T01:34:11.590Z,24.60
2018-03-14T01:35:11.609Z,24.70
2018-03-14T01:36:11.619Z,23.60
2018-03-14T01:37:11.631Z,23.10
2018-03-14T01:38:11.654Z,25.70
2018-03-14T01:39:11.665Z,22.80
2018-03-14T01:40:11.665Z,23.30
2018-03-14T01:41:11.687Z,24.20
2018-03-14T01:42:11.696Z,22.10
2018-03-14T01:43:11.704Z,23.00
2018-03-14T01:44:11.726Z,23.20
2018-03-14T01:45:11.734Z,25.10
2018-03-14T01:46:11.744Z,24.30
2018-03-14T01:47:11.765Z,25.10
2018-03-14T01:48:11.775Z,26.60
2018-03-14T01:49:11.784Z,27.30
2018-03-14T01:50:11.807Z,25.40
2018-03-14T01:51:11.818Z,25.80
2018-03-14T01:52:11.834Z,25.60
2018-03-14T01:53:11.855Z,25.70
2018-03-14T01:54:11.854Z,26.30
2018-03-14T01:55:11.873Z,25.90
2018-03-14T01:56:11.883Z,24.80
2018-03-14T01:57:11.896Z,26.30
2018-03-14T01:58:11.913Z,28.30
2018-03-14T01:59:11.922Z,24.60
2018-03-14T02:00:11.934Z,22.60
2018-03-14T02:01:11.952Z,23.70
2018-03-14T02:02:11.963Z,25.20
2018-03-14T02:03:11.970Z,25.60
2018-03-14T02:04:11.992Z,28.50
2018-03-14T02:05:12.003Z,25.40
2018-03-14T02:06:12.010Z,26.30
2018-03-14T02:07:12.030Z,24.60
2018-03-14T02:08:12.040Z,23.70
2018-03-14T02:09:12.048Z,22.50
2018-03-14T02:10:12.070Z,22.20
2018-03-14T02:11:12.080Z,22.30
2018-03-14T02:12:12.092Z,23.60
2018-03-14T02:13:12.113Z,23.50
2018-03-14T02:14:12.118Z,22.40
2018-03-14T02:15:12.139Z,21.60
2018-03-14T02:16:12.149Z,20.70
2018-03-14T02:17:12.156Z,21.70
2018-03-14T02:18:12.181Z,19.70
2018-03-14T02:19:12.191Z,20.40
2018-03-14T02:20:12.199Z,21.40
2018-03-14T02:21:12.218Z,20.00
2018-03-14T02:22:12.231Z,21.80
2018-03-14T02:23:12.238Z,18.20
2018-03-14T02:24:12.256Z,19.70
2018-03-14T02:25:12.265Z,20.80
2018-03-14T02:26:12.278Z,20.40
2018-03-14T02:27:12.306Z,22.70
2018-03-14T02:28:12.308Z,20.70
2018-03-14T02:29:12.314Z,20.20
2018-03-14T02:30:12.336Z,18.20
2018-03-14T02:31:12.343Z,18.80
2018-03-14T02:32:12.356Z,17.50
2018-03-14T02:33:12.387Z,17.90
2018-03-14T02:34:12.383Z,18.70
2018-03-14T02:35:12.396Z,18.00
2018-03-14T02:36:12.418Z,19.60
2018-03-14T02:37:12.426Z,17.80
2018-03-14T02:38:12.433Z,18.60
2018-03-14T02:39:12.452Z,17.90
2018-03-14T02:40:12.462Z,18.40
2018-03-14T02:41:12.475Z,17.50
2018-03-14T02:42:12.495Z,18.00
2018-03-14T02:43:12.501Z,17.70
2018-03-14T02:44:12.511Z,16.70
2018-03-14T02:45:12.532Z,18.00
2018-03-14T02:46:12.539Z,17.40
2018-03-14T02:47:12.561Z,15.80
2018-03-14T02:48:12.574Z,15.10
2018-03-14T02:49:12.583Z,16.40
2018-03-14T02:50:12.613Z,16.80
2018-03-14T02:51:12.613Z,16.00
2018-03-14T02:52:12.617Z,17.30
2018-03-14T02:53:12.639Z,17.30
2018-03-14T02:54:12.648Z,16.70
2018-03-14T02:55:12.669Z,18.60
2018-03-14T02:56:12.683Z,18.20
2018-03-14T02:57:12.690Z,18.70
2018-03-14T02:58:12.697Z,17.30
2018-03-14T02:59:12.721Z,15.30
2018-03-14T03:00:12.726Z,16.40
2018-03-14T03:01:12.739Z,16.90
2018-03-14T03:02:12.758Z,16.20
2018-03-14T03:03:12.765Z,13.70
2018-03-14T03:04:12.775Z,15.00
2018-03-14T03:05:12.796Z,14.60
2018-03-14T03:06:12.805Z,16.30
2018-03-14T03:07:12.817Z,15.90
2018-03-14T03:08:12.839Z,17.20
2018-03-14T03:09:12.856Z,16.60
2018-03-14T03:10:12.853Z,16.90
2018-03-14T03:11:12.874Z,18.60
2018-03-14T03:12:12.884Z,17.50
2018-03-14T03:13:12.894Z,17.10
2018-03-14T03:14:12.919Z,15.70
2018-03-14T03:15:12.922Z,17.60
2018-03-14T03:16:12.937Z,18.10
2018-03-14T03:17:12.953Z,17.90
2018-03-14T03:18:12.968Z,17.40
2018-03-14T03:19:12.971Z,18.10
2018-03-14T03:20:13.045Z,18.70
2018-03-14T03:21:13.004Z,16.20
2018-03-14T03:22:13.009Z,17.30
2018-03-14T03:23:13.038Z,16.90
2018-03-14T03:24:13.043Z,15.60
2018-03-14T03:25:13.053Z,19.10
2018-03-14T03:26:13.071Z,19.40
2018-03-14T03:27:13.082Z,21.10
2018-03-14T03:28:13.092Z,17.70
2018-03-14T03:29:13.113Z,18.10
2018-03-14T03:30:13.122Z,16.70
2018-03-14T03:31:13.140Z,16.80
2018-03-14T03:32:13.153Z,19.40
2018-03-14T03:33:13.157Z,17.00
2018-03-14T03:34:13.167Z,16.90
2018-03-14T03:35:13.187Z,17.50
2018-03-14T03:36:13.197Z,18.00
2018-03-14T03:37:13.206Z,19.20
2018-03-14T03:38:13.227Z,18.60
2018-03-14T03:39:13.235Z,19.90
2018-03-14T03:40:13.248Z,17.80
2018-03-14T03:41:13.267Z,17.40
2018-03-14T03:42:13.275Z,18.40
2018-03-14T03:43:13.285Z,18.90
2018-03-14T03:44:13.305Z,17.20
2018-03-14T03:45:13.326Z,17.30
2018-03-14T03:46:13.324Z,18.20
2018-03-14T03:47:13.344Z,18.10
2018-03-14T03:48:13.356Z,19.20
2018-03-14T03:49:13.367Z,20.30
2018-03-14T03:50:13.384Z,17.50
2018-03-14T03:51:13.400Z,18.80
2018-03-14T03:52:13.405Z,21.70
2018-03-14T03:53:13.427Z,19.60
2018-03-14T03:54:13.431Z,20.30
2018-03-14T03:55:13.455Z,18.60
2018-03-14T03:56:13.466Z,17.70
2018-03-14T03:57:13.474Z,20.80
2018-03-14T03:58:13.491Z,20.70
2018-03-14T03:59:13.500Z,19.50
2018-03-14T04:00:13.511Z,19.80
2018-03-14T04:01:13.531Z,19.60
2018-03-14T04:02:13.544Z,19.60
2018-03-14T04:03:13.559Z,17.00
2018-03-14T04:04:13.558Z,19.40
2018-03-14T04:05:13.580Z,19.90
2018-03-14T04:06:13.589Z,17.90
2018-03-14T04:07:13.613Z,17.70
2018-03-14T04:08:13.620Z,17.50
2018-03-14T04:09:13.633Z,20.20
2018-03-14T04:10:13.651Z,21.50
2018-03-14T04:11:13.657Z,17.50
2018-03-14T04:12:13.667Z,18.10
2018-03-14T04:13:13.692Z,15.80
2018-03-14T04:14:13.697Z,18.10
2018-03-14T04:15:13.705Z,19.50
2018-03-14T04:16:13.719Z,17.20
2018-03-14T04:17:13.739Z,16.90
2018-03-14T04:18:13.747Z,16.70
2018-03-14T04:19:13.770Z,15.10
2018-03-14T04:20:13.776Z,15.70
2018-03-14T04:21:13.790Z,19.10
2018-03-14T04:22:13.805Z,17.20
2018-03-14T04:23:13.814Z,14.10
2018-03-14T04:24:13.823Z,18.10
2018-03-14T04:25:13.844Z,17.70
2018-03-14T04:26:13.854Z,16.70
2018-03-14T04:27:13.866Z,17.40
2018-03-14T04:28:13.872Z,17.50
2018-03-14T04:29:13.897Z,16.10
2018-03-14T04:30:13.901Z,16.40
2018-03-14T04:31:13.923Z,15.40
2018-03-14T04:32:13.936Z,17.00
2018-03-14T04:33:13.941Z,16.50
2018-03-14T04:34:13.961Z,17.70
2018-03-14T04:35:13.971Z,15.90
2018-03-14T04:36:13.980Z,16.80
2018-03-14T04:37:14.000Z,15.70
2018-03-14T04:38:14.021Z,15.20
2018-03-14T04:39:14.019Z,13.80
2018-03-14T04:40:14.043Z,17.30
2018-03-14T04:41:14.053Z,15.40
2018-03-14T04:42:14.065Z,16.50
2018-03-14T04:43:14.083Z,15.20
2018-03-14T04:44:14.093Z,15.70
2018-03-14T04:45:14.097Z,17.20
2018-03-14T04:46:14.118Z,15.30
2018-03-14T04:47:14.128Z,14.00
2018-03-14T04:48:14.136Z,14.10
2018-03-14T04:49:14.160Z,13.80
2018-03-14T04:50:14.172Z,14.20
2018-03-14T04:51:14.182Z,14.10
2018-03-14T04:52:14.209Z,14.70
2018-03-14T04:53:14.211Z,18.30
2018-03-14T04:54:14.214Z,15.20
2018-03-14T04:55:14.235Z,13.00
2018-03-14T04:56:14.246Z,14.70
2018-03-14T04:57:14.255Z,14.00
2018-03-14T04:58:14.278Z,13.60
2018-03-14T04:59:14.288Z,14.10
2018-03-14T05:00:14.309Z,11.90
2018-03-14T05:01:14.320Z,13.60
2018-03-14T05:02:14.373Z,13.50
2018-03-14T05:03:14.333Z,13.10
2018-03-14T05:04:14.353Z,14.90
2018-03-14T05:05:14.362Z,16.00
2018-03-14T05:06:14.373Z,12.80
2018-03-14T05:07:14.393Z,11.10
2018-03-14T05:08:14.401Z,13.00
2018-03-14T05:09:14.415Z,11.70
2018-03-14T05:10:14.431Z,13.80
2018-03-14T05:11:14.441Z,12.00
2018-03-14T05:12:14.454Z,14.20
2018-03-14T05:13:14.471Z,12.90
2018-03-14T05:14:14.504Z,12.30
2018-03-14T05:15:14.490Z,12.90
2018-03-14T05:16:14.514Z,12.70
2018-03-14T05:17:14.519Z,14.70
2018-03-14T05:18:14.530Z,10.90
2018-03-14T05:19:14.550Z,11.90
2018-03-14T05:20:14.559Z,12.70
2018-03-14T05:21:14.615Z,11.80
2018-03-14T05:22:14.592Z,14.20
2018-03-14T05:23:14.597Z,12.00
2018-03-14T05:24:14.607Z,12.30
2018-03-14T05:25:14.630Z,13.30
2018-03-14T05:26:14.638Z,15.00
2018-03-14T05:27:14.662Z,11.90
2018-03-14T05:28:14.667Z,11.20
2018-03-14T05:29:14.677Z,13.80
2018-03-14T05:30:14.701Z,10.70
2018-03-14T05:31:14.706Z,10.60
2018-03-14T05:32:14.719Z,10.90
2018-03-14T05:33:14.737Z,11.20
2018-03-14T05:34:14.747Z,13.30
2018-03-14T05:35:14.758Z,14.30
2018-03-14T05:36:14.778Z,10.00
2018-03-14T05:37:14.784Z,14.60
2018-03-14T05:38:14.797Z,12.90
2018-03-14T05:39:14.815Z,13.00
2018-03-14T05:40:14.823Z,14.20
2018-03-14T05:41:14.832Z,11.50
2018-03-14T05:42:14.857Z,12.50
2018-03-14T05:43:14.863Z,14.40
2018-03-14T05:44:14.872Z,9.60
2018-03-14T05:45:14.893Z,14.10
2018-03-14T05:46:14.906Z,12.30
2018-03-14T05:47:14.911Z,11.90
2018-03-14T05:48:14.933Z,11.90
2018-03-14T05:49:14.941Z,13.00
2018-03-14T05:50:14.955Z,12.80
2018-03-14T05:51:14.974Z,11.50
2018-03-14T05:52:14.983Z,12.60
2018-03-14T05:53:14.990Z,11.30
2018-03-14T05:54:15.014Z,15.10
2018-03-14T05:55:15.024Z,15.40
2018-03-14T05:56:15.030Z,12.70
2018-03-14T05:57:15.050Z,14.60
2018-03-14T05:58:15.061Z,12.60
2018-03-14T05:59:15.077Z,15.20
2018-03-14T06:00:15.089Z,10.60
2018-03-14T06:01:15.098Z,12.90
2018-03-14T06:02:15.107Z,11.80
2018-03-14T06:03:15.128Z,12.40
2018-03-14T06:04:15.136Z,12.50
2018-03-14T06:05:15.150Z,14.80
2018-03-14T06:06:15.167Z,15.60
2018-03-14T06:07:15.175Z,11.20
2018-03-14T06:08:15.185Z,11.60
2018-03-14T06:09:15.206Z,13.00
2018-03-14T06:10:15.223Z,13.10
2018-03-14T06:11:15.240Z,14.20
2018-03-14T06:12:15.250Z,10.90
2018-03-14T06:13:15.257Z,17.40
2018-03-14T06:14:15.275Z,11.80
2018-03-14T06:15:15.285Z,9.90
2018-03-14T06:16:15.297Z,11.00
2018-03-14T06:17:15.315Z,13.10
2018-03-14T06:18:15.325Z,10.80
2018-03-14T06:19:15.332Z,14.30
2018-03-14T06:20:15.357Z,13.60
2018-03-14T06:21:15.362Z,10.70
2018-03-14T06:22:15.377Z,15.10
2018-03-14T06:23:15.394Z,13.20
2018-03-14T06:24:15.405Z,13.60
2018-03-14T06:25:15.412Z,10.80
2018-03-14T06:26:15.433Z,12.40
2018-03-14T06:27:15.441Z,13.60
2018-03-14T06:28:15.462Z,14.40
2018-03-14T06:29:15.475Z,15.50
2018-03-14T06:30:15.496Z,12.30
2018-03-14T06:31:15.502Z,11.60
2018-03-14T06:32:15.510Z,12.60
2018-03-14T06:33:15.523Z,14.90
2018-03-14T06:34:15.542Z,13.60
2018-03-14T06:35:15.553Z,12.10
2018-03-14T06:36:15.583Z,13.20
2018-03-14T06:37:15.583Z,16.40
2018-03-14T06:38:15.589Z,12.20
2018-03-14T06:39:15.623Z,14.50
2018-03-14T06:40:15.620Z,13.80
2018-03-14T06:41:15.630Z,10.60
2018-03-14T06:42:15.650Z,12.90
2018-03-14T06:43:15.662Z,15.20
2018-03-14T06:44:15.680Z,13.60
2018-03-14T06:45:15.688Z,16.00
2018-03-14T06:46:15.703Z,11.80
2018-03-14T06:47:15.720Z,12.60
2018-03-14T06:48:15.728Z,15.40
2018-03-14T06:49:15.749Z,13.30
2018-03-14T06:50:15.759Z,14.70
2018-03-14T06:51:15.772Z,14.60
2018-03-14T06:52:15.788Z,14.70
2018-03-14T06:53:15.804Z,16.70
2018-03-14T06:54:15.820Z,13.20
2018-03-14T06:55:15.830Z,12.00
2018-03-14T06:56:15.837Z,14.10
2018-03-14T06:57:15.857Z,16.50
2018-03-14T06:58:15.868Z,12.80
2018-03-14T06:59:15.889Z,13.30
2018-03-14T07:00:15.898Z,18.40
2018-03-14T07:01:15.919Z,14.70
2018-03-14T07:02:15.926Z,13.10
2018-03-14T07:03:15.940Z,13.40
2018-03-14T07:04:15.961Z,16.10
2018-03-14T07:05:15.965Z,14.30
2018-03-14T07:06:16.004Z,15.40
2018-03-14T07:07:15.997Z,17.20
2018-03-14T07:08:16.007Z,14.80
2018-03-14T07:09:16.027Z,14.60
2018-03-14T07:10:16.039Z,15.20
2018-03-14T07:11:16.062Z,13.40
2018-03-14T07:12:16.070Z,14.90
2018-03-14T07:13:16.090Z,15.70
2018-03-14T07:14:16.098Z,15.40
2018-03-14T07:15:16.118Z,15.80
2018-03-14T07:16:16.126Z,17.30
2018-03-14T07:17:16.139Z,13.90
2018-03-14T07:18:16.161Z,15.60
2018-03-14T07:19:16.166Z,15.40
2018-03-14T07:20:16.187Z,16.30
2018-03-14T07:21:16.196Z,13.20
2018-03-14T07:22:16.219Z,16.30
2018-03-14T07:23:16.230Z,16.50
2018-03-14T07:24:16.248Z,15.80
2018-03-14T07:25:16.257Z,15.40
2018-03-14T07:26:16.282Z,18.10
2018-03-14T07:27:16.286Z,16.80
2018-03-14T07:28:16.296Z,15.90
2018-03-14T07:29:16.321Z,14.10
2018-03-14T07:30:16.327Z,16.80
2018-03-14T07:31:16.351Z,14.60
2018-03-14T07:32:16.360Z,18.00
2018-03-14T07:33:16.382Z,18.70
2018-03-14T07:34:16.390Z,15.00
2018-03-14T07:35:16.411Z,20.20
2018-03-14T07:36:16.417Z,18.10
2018-03-14T07:37:16.439Z,17.10
2018-03-14T07:38:16.447Z,20.00
2018-03-14T07:39:16.473Z,15.60
2018-03-14T07:40:16.482Z,16.80
2018-03-14T07:41:16.487Z,18.00
2018-03-14T07:42:16.508Z,18.40
2018-03-14T07:43:16.517Z,18.60
2018-03-14T07:44:16.538Z,16.10
2018-03-14T07:45:16.547Z,16.10
2018-03-14T07:46:16.571Z,20.70
2018-03-14T07:47:16.577Z,19.80
2018-03-14T07:48:16.599Z,18.60
2018-03-14T07:49:16.610Z,21.30
2018-03-14T07:50:16.630Z,18.20
2018-03-14T07:51:16.637Z,19.20
2018-03-14T07:52:16.660Z,16.10
2018-03-14T07:53:16.668Z,16.80
2018-03-14T07:54:16.694Z,15.20
2018-03-14T07:55:16.703Z,16.70
2018-03-14T07:56:16.711Z,19.00
2018-03-14T07:57:16.729Z,18.30
2018-03-14T07:58:16.737Z,20.80
2018-03-14T07:59:16.759Z,16.20
2018-03-14T08:00:16.766Z,22.20
2018-03-14T08:01:16.791Z,15.10
2018-03-14T08:02:16.798Z,20.30
2018-03-14T08:03:16.821Z,17.40
2018-03-14T08:04:16.829Z,17.30
2018-03-14T08:05:16.851Z,18.70
2018-03-14T08:06:16.859Z,17.30
2018-03-14T08:07:16.872Z,19.50
2018-03-14T08:08:16.891Z,20.00
2018-03-14T08:09:16.911Z,16.30
2018-03-14T08:10:16.922Z,20.80
2018-03-14T08:11:16.927Z,23.00
2018-03-14T08:12:16.949Z,19.40
2018-03-14T08:13:16.959Z,20.80
2018-03-14T08:14:16.981Z,19.30
2018-03-14T08:15:16.994Z,20.30
2018-03-14T08:16:16.999Z,21.60
2018-03-14T08:17:17.025Z,20.30
2018-03-14T08:18:17.040Z,21.10
2018-03-14T08:19:17.051Z,18.50
2018-03-14T08:20:17.070Z,19.30
2018-03-14T08:21:17.080Z,20.20
2018-03-14T08:22:17.105Z,19.80
2018-03-14T08:23:17.109Z,19.70
2018-03-14T08:24:17.118Z,20.30
2018-03-14T08:25:17.131Z,20.20
2018-03-14T08:26:17.160Z,21.10
2018-03-14T08:27:17.162Z,22.20
2018-03-14T08:28:17.178Z,18.30
2018-03-14T08:29:17.191Z,21.50
2018-03-14T08:30:17.212Z,20.80
2018-03-14T08:31:17.224Z,20.80
2018-03-14T08:32:17.227Z,21.20
2018-03-14T08:33:17.254Z,23.00
2018-03-14T08:34:17.262Z,21.00
2018-03-14T08:35:17.278Z,22.00
2018-03-14T08:36:17.292Z,21.60
2018-03-14T08:37:17.310Z,24.00
2018-03-14T08:38:17.321Z,20.90
2018-03-14T08:39:17.326Z,20.60
2018-03-14T08:40:17.348Z,23.50
2018-03-14T08:41:17.357Z,23.30
2018-03-14T08:42:17.383Z,22.00
2018-03-14T08:43:17.386Z,21.80
2018-03-14T08:44:17.396Z,28.10
2018-03-14T08:45:17.418Z,26.90
2018-03-14T08:46:17.429Z,24.50
2018-03-14T08:47:17.447Z,23.10
2018-03-14T08:48:17.457Z,23.10
2018-03-14T08:49:17.467Z,26.80
2018-03-14T08:50:17.486Z,24.60
2018-03-14T08:51:17.496Z,25.60
2018-03-14T08:52:17.518Z,23.50
2018-03-14T08:53:17.526Z,22.40
2018-03-14T08:54:17.567Z,21.10
2018-03-14T08:55:17.560Z,23.40
2018-03-14T08:56:17.565Z,26.30
2018-03-14T08:57:17.587Z,24.20
2018-03-14T08:58:17.598Z,24.90
2018-03-14T08:59:17.617Z,25.00
2018-03-14T09:00:17.630Z,24.60
2018-03-14T09:01:17.647Z,20.40
2018-03-14T09:02:17.657Z,25.30
2018-03-14T09:03:17.666Z,23.80
2018-03-14T09:04:17.686Z,22.70
2018-03-14T09:05:17.700Z,21.80
2018-03-14T09:06:17.721Z,26.50
2018-03-14T09:07:17.728Z,22.60
2018-03-14T09:08:17.749Z,26.60
2018-03-14T09:09:17.757Z,22.30
2018-03-14T09:10:17.777Z,21.50
2018-03-14T09:11:17.799Z,23.30
2018-03-14T09:12:17.807Z,20.50
2018-03-14T09:13:17.819Z,22.60
2018-03-14T09:14:17.843Z,23.50
2018-03-14T09:15:17.847Z,20.60
2018-03-14T09:16:17.856Z,23.20
2018-03-14T09:17:17.881Z,23.30
2018-03-14T09:18:17.887Z,24.50
2018-03-14T09:19:17.911Z,25.80
2018-03-14T09:20:17.918Z,25.70
2018-03-14T09:21:17.943Z,22.00
2018-03-14T09:22:17.946Z,24.00
2018-03-14T09:23:17.968Z,24.10
2018-03-14T09:24:17.977Z,23.00
2018-03-14T09:25:18.007Z,24.60
2018-03-14T09:26:18.008Z,23.30
2018-03-14T09:27:18.029Z,21.50
2018-03-14T09:28:18.037Z,22.70
2018-03-14T09:29:18.063Z,21.00
2018-03-14T09:30:18.080Z,21.50
2018-03-14T09:31:18.090Z,21.60
2018-03-14T09:32:18.099Z,21.10
2018-03-14T09:33:18.138Z,21.00
2018-03-14T09:34:18.140Z,20.80
2018-03-14T09:35:18.152Z,20.40
2018-03-14T09:36:18.171Z,20.60
2018-03-14T09:37:18.180Z,20.30
2018-03-14T09:38:18.200Z,19.10
2018-03-14T09:39:18.209Z,20.00
2018-03-14T09:40:18.232Z,17.40
2018-03-14T09:41:18.241Z,21.50
2018-03-14T09:42:18.263Z,20.50
2018-03-14T09:43:18.276Z,18.10
2018-03-14T09:44:18.292Z,19.10
2018-03-14T09:45:18.327Z,19.10
2018-03-14T09:46:18.324Z,18.30
2018-03-14T09:47:18.343Z,19.30
2018-03-14T09:48:18.352Z,17.50
2018-03-14T09:49:18.377Z,17.70
2018-03-14T09:50:18.384Z,17.00
2018-03-14T09:51:18.408Z,17.90
2018-03-14T09:52:18.427Z,19.40
2018-03-14T09:53:18.438Z,16.50
2018-03-14T09:54:18.459Z,15.50
2018-03-14T09:55:18.464Z,16.80
2018-03-14T09:56:18.489Z,15.40
2018-03-14T09:57:18.508Z,17.60
2018-03-14T09:58:18.516Z,17.10
2018-03-14T09:59:18.540Z,19.40
2018-03-14T10:00:18.568Z,16.20
2018-03-14T10:01:18.573Z,17.40
2018-03-14T10:02:18.593Z,14.00
2018-03-14T10:03:18.603Z,15.10
2018-03-14T10:04:18.619Z,18.20
2018-03-14T10:05:18.641Z,15.10
2018-03-14T10:06:18.651Z,21.90
2018-03-14T10:07:18.672Z,16.80
2018-03-14T10:08:18.692Z,18.10
2018-03-14T10:09:18.714Z,21.00
2018-03-14T10:10:18.724Z,19.80
2018-03-14T10:11:18.744Z,16.80
2018-03-14T10:12:18.754Z,25.50
2018-03-14T10:13:18.778Z,16.70
2018-03-14T10:14:18.785Z,17.60
2018-03-14T10:15:18.805Z,13.20
2018-03-14T10:16:18.830Z,19.70
2018-03-14T10:17:18.840Z,15.70
2018-03-14T10:18:18.857Z,17.00
2018-03-14T10:19:18.914Z,17.10
2018-03-14T10:20:18.890Z,21.90
2018-03-14T10:21:18.909Z,17.60
2018-03-14T10:22:18.928Z,14.50
2018-03-14T10:23:18.942Z,26.30
2018-03-14T10:24:18.961Z,16.00
2018-03-14T10:25:18.972Z,16.70
2018-03-14T10:26:19.009Z,18.40
2018-03-14T10:27:18.999Z,14.60
2018-03-14T10:28:19.024Z,19.30
2018-03-14T10:29:19.046Z,22.00
2018-03-14T10:30:19.051Z,20.40
2018-03-14T10:31:19.085Z,18.00
2018-03-14T10:32:19.089Z,17.90
2018-03-14T10:33:19.169Z,18.70
2018-03-14T10:34:19.115Z,16.70
2018-03-14T10:35:19.139Z,16.50
2018-03-14T10:36:19.158Z,16.40
2018-03-14T10:37:19.166Z,14.50
2018-03-14T10:38:19.189Z,15.20
2018-03-14T10:39:19.197Z,16.30
2018-03-14T10:40:19.227Z,16.00
2018-03-14T10:41:19.235Z,13.30
2018-03-14T10:42:19.245Z,14.90
2018-03-14T10:43:19.272Z,14.80
2018-03-14T10:44:19.281Z,14.70
2018-03-14T10:45:19.300Z,15.20
2018-03-14T10:46:19.317Z,15.20
2018-03-14T10:47:19.327Z,15.30
2018-03-14T10:48:19.352Z,16.20
2018-03-14T10:49:19.374Z,18.40
2018-03-14T10:50:19.379Z,18.70
2018-03-14T10:51:19.403Z,15.90
2018-03-14T10:52:19.422Z,16.60
2018-03-14T10:53:19.434Z,21.40
2018-03-14T10:54:19.453Z,20.90
2018-03-14T10:55:19.463Z,16.70
2018-03-14T10:56:19.485Z,18.70
2018-03-14T10:57:19.503Z,15.70
2018-03-14T10:58:19.511Z,20.50
2018-03-14T10:59:19.534Z,18.20
2018-03-14T11:00:19.547Z,16.90
2018-03-14T11:01:19.565Z,14.60
2018-03-14T11:02:19.573Z,15.30
2018-03-14T11:03:19.598Z,18.20
2018-03-14T11:04:19.619Z,18.90
2018-03-14T11:05:19.631Z,19.00
2018-03-14T11:06:19.649Z,22.00
2018-03-14T11:07:19.667Z,16.30
2018-03-14T11:08:19.679Z,20.40
2018-03-14T11:09:19.690Z,17.90
2018-03-14T11:10:19.712Z,17.00
2018-03-14T11:11:19.714Z,17.40
2018-03-14T11:12:19.740Z,17.50
2018-03-14T11:13:19.750Z,18.00
2018-03-14T11:14:19.768Z,19.00
2018-03-14T11:15:19.791Z,18.40
2018-03-14T11:16:19.797Z,16.60
2018-03-14T11:17:19.832Z,19.20
2018-03-14T11:18:19.826Z,17.50
2018-03-14T11:19:19.855Z,18.00
2018-03-14T11:20:19.863Z,22.10
2018-03-14T11:21:19.884Z,19.40
2018-03-14T11:22:19.894Z,18.80
2018-03-14T11:23:19.909Z,19.70
2018-03-14T11:24:19.922Z,19.40
2018-03-14T11:25:19.940Z,20.40
2018-03-14T11:26:19.954Z,19.70
2018-03-14T11:27:19.969Z,23.40
2018-03-14T11:28:19.979Z,21.90
2018-03-14T11:29:20.005Z,19.70
2018-03-14T11:30:20.026Z,24.20
2018-03-14T11:31:20.034Z,20.00
2018-03-14T11:32:20.040Z,19.80
2018-03-14T11:33:20.050Z,20.50
2018-03-14T11:34:20.088Z,20.60
2018-03-14T11:35:20.090Z,21.90
2018-03-14T11:36:20.104Z,21.00
2018-03-14T11:37:20.108Z,20.30
2018-03-14T11:38:20.134Z,19.30
2018-03-14T11:39:20.139Z,18.90
2018-03-14T11:40:20.164Z,18.90
2018-03-14T11:41:20.169Z,19.60
2018-03-14T11:42:20.237Z,19.50
2018-03-14T11:43:20.199Z,20.90
2018-03-14T11:44:20.226Z,18.90
2018-03-14T11:45:20.234Z,21.00
2018-03-14T11:46:20.244Z,21.80
2018-03-14T11:47:20.262Z,20.50
2018-03-14T11:48:20.268Z,19.70
2018-03-14T11:49:20.290Z,20.50
2018-03-14T11:50:20.300Z,20.60
2018-03-14T11:51:20.324Z,21.90
2018-03-14T11:52:20.329Z,20.50
2018-03-14T11:53:20.343Z,19.20
2018-03-14T11:54:20.364Z,21.40
2018-03-14T11:55:20.373Z,21.70
2018-03-14T11:56:20.390Z,22.30
2018-03-14T11:57:20.414Z,20.60
2018-03-14T11:58:20.425Z,19.20
2018-03-14T11:59:20.429Z,20.50
2018-03-14T12:00:20.443Z,20.10
2018-03-14T12:01:20.459Z,20.90
2018-03-14T12:02:20.468Z,21.40
2018-03-14T12:03:20.494Z,21.30
2018-03-14T12:04:20.503Z,21.10
2018-03-14T12:05:20.525Z,18.70
2018-03-14T12:06:20.530Z,21.10
2018-03-14T12:07:20.566Z,23.60
2018-03-14T12:08:20.562Z,20.40
2018-03-14T12:09:20.569Z,20.10
2018-03-14T12:10:20.624Z,22.70
2018-03-14T12:11:20.599Z,20.80
2018-03-14T12:12:20.661Z,19.10
2018-03-14T12:13:20.629Z,26.10
2018-03-14T12:14:20.646Z,22.80
2018-03-14T12:15:20.659Z,20.50
2018-03-14T12:16:20.676Z,22.30
2018-03-14T12:17:20.689Z,22.00
2018-03-14T12:18:20.710Z,20.80
2018-03-14T12:19:20.723Z,21.80
2018-03-14T12:20:20.729Z,20.90
2018-03-14T12:21:20.750Z,19.30
2018-03-14T12:22:20.763Z,19.20
2018-03-14T12:23:20.780Z,20.90
2018-03-14T12:24:20.790Z,19.50
2018-03-14T12:25:20.810Z,19.60
2018-03-14T12:26:20.866Z,17.90
2018-03-14T12:27:20.844Z,18.20
2018-03-14T12:28:20.853Z,18.00
2018-03-14T12:29:20.874Z,18.50
2018-03-14T12:30:20.882Z,20.30
2018-03-14T12:31:20.901Z,19.00
2018-03-14T12:32:20.910Z,19.00
2018-03-14T12:33:20.932Z,19.20
2018-03-14T12:34:20.944Z,18.70
2018-03-14T12:35:20.962Z,19.40
2018-03-14T12:36:20.971Z,18.80
2018-03-14T12:37:20.995Z,21.60
2018-03-14T12:38:21.003Z,20.80
2018-03-14T12:39:21.026Z,19.10
2018-03-14T12:40:21.035Z,22.00
2018-03-14T12:41:21.076Z,20.90
2018-03-14T12:42:21.065Z,19.50
2018-03-14T12:43:21.082Z,22.60
2018-03-14T12:44:21.092Z,18.50
2018-03-14T12:45:21.114Z,18.40
2018-03-14T12:46:21.121Z,23.70
2018-03-14T12:47:21.147Z,18.60
2018-03-14T12:48:21.153Z,19.10
2018-03-14T12:49:21.174Z,20.00
2018-03-14T12:50:21.182Z,21.40
2018-03-14T12:51:21.207Z,22.80
2018-03-14T12:52:21.215Z,20.40